sensor_id;sensor_type;location;lat;lon;timestamp;P1;durP1;ratioP1;P2;durP2;ratioP2
74614;SDS011;63121;51.458;-0.110;2023-07-20T00:02:04;4.25;;;1.40;;
74614;SDS011;63121;51.458;-0.110;2023-07-20T00:04:30;3.22;;;1.17;;
74614;SDS011;63121;51.458;-0.110;2023-07-20T00:06:57;2.97;;;1.10;;
74614;SDS011;63121;51.458;-0.110;2023-07-20T00:09:22;3.03;;;1.17;;
74614;SDS011;63121;51.458;-0.110;2023-07-20T00:11:48;6.30;;;1.17;;
74614;SDS011;63121;51.458;-0.110;2023-07-20T00:14:18;3.78;;;1.10;;
74614;SDS011;63121;51.458;-0.110;2023-07-20T00:16:46;3.95;;;1.10;;
74614;SDS011;63121;51.458;-0.110;2023-07-20T00:19:14;2.45;;;1.08;;
74614;SDS011;63121;51.458;-0.110;2023-07-20T00:21:41;2.75;;;1.20;;
74614;SDS011;63121;51.458;-0.110;2023-07-20T00:24:07;3.75;;;1.42;;
74614;SDS011;63121;51.458;-0.110;2023-07-20T00:26:33;3.08;;;1.17;;
74614;SDS011;63121;51.458;-0.110;2023-07-20T00:28:59;2.42;;;1.00;;
74614;SDS011;63121;51.458;-0.110;2023-07-20T00:31:24;2.47;;;1.08;;
74614;SDS011;63121;51.458;-0.110;2023-07-20T00:33:49;4.13;;;1.40;;
74614;SDS011;63121;51.458;-0.110;2023-07-20T00:36:15;4.10;;;1.23;;
74614;SDS011;63121;51.458;-0.110;2023-07-20T00:38:42;4.43;;;1.25;;
74614;SDS011;63121;51.458;-0.110;2023-07-20T00:41:07;4.72;;;1.52;;
74614;SDS011;63121;51.458;-0.110;2023-07-20T00:43:32;4.35;;;1.20;;
74614;SDS011;63121;51.458;-0.110;2023-07-20T00:45:58;4.68;;;1.30;;
74614;SDS011;63121;51.458;-0.110;2023-07-20T00:48:24;3.55;;;1.23;;
74614;SDS011;63121;51.458;-0.110;2023-07-20T00:50:49;4.95;;;1.40;;
74614;SDS011;63121;51.458;-0.110;2023-07-20T00:53:15;4.38;;;1.30;;
74614;SDS011;63121;51.458;-0.110;2023-07-20T00:55:41;3.13;;;1.20;;
74614;SDS011;63121;51.458;-0.110;2023-07-20T00:58:07;3.17;;;1.30;;
74614;SDS011;63121;51.458;-0.110;2023-07-20T01:00:33;4.72;;;1.45;;
74614;SDS011;63121;51.458;-0.110;2023-07-20T01:02:58;6.60;;;1.30;;
74614;SDS011;63121;51.458;-0.110;2023-07-20T01:08:12;4.30;;;1.45;;
74614;SDS011;63121;51.458;-0.110;2023-07-20T01:10:54;4.40;;;1.17;;
74614;SDS011;63121;51.458;-0.110;2023-07-20T01:13:27;4.53;;;1.20;;
74614;SDS011;63121;51.458;-0.110;2023-07-20T01:15:57;4.60;;;1.30;;
74614;SDS011;63121;51.458;-0.110;2023-07-20T01:18:26;2.03;;;1.08;;
74614;SDS011;63121;51.458;-0.110;2023-07-20T01:20:52;1.83;;;0.90;;
74614;SDS011;63121;51.458;-0.110;2023-07-20T01:23:28;3.92;;;1.20;;
74614;SDS011;63121;51.458;-0.110;2023-07-20T01:29:35;3.05;;;1.05;;
74614;SDS011;63121;51.458;-0.110;2023-07-20T01:32:24;2.10;;;0.90;;
74614;SDS011;63121;51.458;-0.110;2023-07-20T01:34:51;2.58;;;1.10;;
74614;SDS011;63121;51.458;-0.110;2023-07-20T01:37:17;3.03;;;0.95;;
74614;SDS011;63121;51.458;-0.110;2023-07-20T01:39:45;4.30;;;1.25;;
74614;SDS011;63121;51.458;-0.110;2023-07-20T01:42:11;2.40;;;1.00;;
74614;SDS011;63121;51.458;-0.110;2023-07-20T01:44:37;2.42;;;1.10;;
74614;SDS011;63121;51.458;-0.110;2023-07-20T01:47:03;1.95;;;0.85;;
74614;SDS011;63121;51.458;-0.110;2023-07-20T01:49:29;2.67;;;0.93;;
74614;SDS011;63121;51.458;-0.110;2023-07-20T01:51:54;3.13;;;1.10;;
74614;SDS011;63121;51.458;-0.110;2023-07-20T01:54:19;2.60;;;1.00;;
74614;SDS011;63121;51.458;-0.110;2023-07-20T01:56:46;3.13;;;1.00;;
74614;SDS011;63121;51.458;-0.110;2023-07-20T01:59:11;3.08;;;1.00;;
74614;SDS011;63121;51.458;-0.110;2023-07-20T02:01:37;3.00;;;1.00;;
74614;SDS011;63121;51.458;-0.110;2023-07-20T02:04:02;3.22;;;0.90;;
74614;SDS011;63121;51.458;-0.110;2023-07-20T02:06:28;4.10;;;1.20;;
74614;SDS011;63121;51.458;-0.110;2023-07-20T02:08:53;3.08;;;1.05;;
74614;SDS011;63121;51.458;-0.110;2023-07-20T02:11:19;3.22;;;1.10;;
74614;SDS011;63121;51.458;-0.110;2023-07-20T02:13:44;7.15;;;1.08;;
74614;SDS011;63121;51.458;-0.110;2023-07-20T02:16:09;2.47;;;0.93;;
74614;SDS011;63121;51.458;-0.110;2023-07-20T02:18:36;2.40;;;1.00;;
74614;SDS011;63121;51.458;-0.110;2023-07-20T02:21:04;2.63;;;1.15;;
74614;SDS011;63121;51.458;-0.110;2023-07-20T02:23:30;5.60;;;1.20;;
74614;SDS011;63121;51.458;-0.110;2023-07-20T02:25:55;2.73;;;1.20;;
74614;SDS011;63121;51.458;-0.110;2023-07-20T02:28:20;5.55;;;1.20;;
74614;SDS011;63121;51.458;-0.110;2023-07-20T02:30:46;3.30;;;1.10;;
74614;SDS011;63121;51.458;-0.110;2023-07-20T02:33:11;3.07;;;1.20;;
74614;SDS011;63121;51.458;-0.110;2023-07-20T02:35:36;2.78;;;1.10;;
74614;SDS011;63121;51.458;-0.110;2023-07-20T02:38:02;4.47;;;1.20;;
74614;SDS011;63121;51.458;-0.110;2023-07-20T02:40:28;3.95;;;1.13;;
74614;SDS011;63121;51.458;-0.110;2023-07-20T02:42:53;2.28;;;0.90;;
74614;SDS011;63121;51.458;-0.110;2023-07-20T02:45:19;3.55;;;1.20;;
74614;SDS011;63121;51.458;-0.110;2023-07-20T02:47:44;3.85;;;0.98;;
74614;SDS011;63121;51.458;-0.110;2023-07-20T02:50:09;4.88;;;1.30;;
74614;SDS011;63121;51.458;-0.110;2023-07-20T02:52:38;7.03;;;1.30;;
74614;SDS011;63121;51.458;-0.110;2023-07-20T02:55:04;4.28;;;1.30;;
74614;SDS011;63121;51.458;-0.110;2023-07-20T02:57:29;2.50;;;1.20;;
74614;SDS011;63121;51.458;-0.110;2023-07-20T02:59:55;5.82;;;1.40;;
74614;SDS011;63121;51.458;-0.110;2023-07-20T03:02:20;5.93;;;1.30;;
74614;SDS011;63121;51.458;-0.110;2023-07-20T03:04:45;4.07;;;1.20;;
74614;SDS011;63121;51.458;-0.110;2023-07-20T03:07:11;2.95;;;1.10;;
74614;SDS011;63121;51.458;-0.110;2023-07-20T03:09:36;2.72;;;1.20;;
74614;SDS011;63121;51.458;-0.110;2023-07-20T03:12:02;2.80;;;1.20;;
74614;SDS011;63121;51.458;-0.110;2023-07-20T03:14:29;2.92;;;1.08;;
74614;SDS011;63121;51.458;-0.110;2023-07-20T03:16:55;3.65;;;1.25;;
74614;SDS011;63121;51.458;-0.110;2023-07-20T03:19:20;3.47;;;1.23;;
74614;SDS011;63121;51.458;-0.110;2023-07-20T03:21:46;3.83;;;1.27;;
74614;SDS011;63121;51.458;-0.110;2023-07-20T03:24:11;4.10;;;1.30;;
74614;SDS011;63121;51.458;-0.110;2023-07-20T03:26:36;3.67;;;1.40;;
74614;SDS011;63121;51.458;-0.110;2023-07-20T03:29:02;4.97;;;1.30;;
74614;SDS011;63121;51.458;-0.110;2023-07-20T03:31:28;4.68;;;1.27;;
74614;SDS011;63121;51.458;-0.110;2023-07-20T03:33:54;4.55;;;1.95;;
74614;SDS011;63121;51.458;-0.110;2023-07-20T03:36:19;4.07;;;1.40;;
74614;SDS011;63121;51.458;-0.110;2023-07-20T03:38:45;4.40;;;1.30;;
74614;SDS011;63121;51.458;-0.110;2023-07-20T03:41:10;6.25;;;1.50;;
74614;SDS011;63121;51.458;-0.110;2023-07-20T03:43:36;2.65;;;1.23;;
74614;SDS011;63121;51.458;-0.110;2023-07-20T03:46:02;3.63;;;1.20;;
74614;SDS011;63121;51.458;-0.110;2023-07-20T03:48:31;4.93;;;1.45;;
74614;SDS011;63121;51.458;-0.110;2023-07-20T03:50:56;2.60;;;1.20;;
74614;SDS011;63121;51.458;-0.110;2023-07-20T03:53:23;4.20;;;1.20;;
74614;SDS011;63121;51.458;-0.110;2023-07-20T03:55:48;4.95;;;1.38;;
74614;SDS011;63121;51.458;-0.110;2023-07-20T03:58:15;4.47;;;1.75;;
74614;SDS011;63121;51.458;-0.110;2023-07-20T04:00:47;4.10;;;1.50;;
74614;SDS011;63121;51.458;-0.110;2023-07-20T04:03:15;4.45;;;1.40;;
74614;SDS011;63121;51.458;-0.110;2023-07-20T04:05:41;4.00;;;1.35;;
74614;SDS011;63121;51.458;-0.110;2023-07-20T04:08:07;4.13;;;1.33;;
74614;SDS011;63121;51.458;-0.110;2023-07-20T04:10:32;4.68;;;1.35;;
74614;SDS011;63121;51.458;-0.110;2023-07-20T04:12:58;4.55;;;1.30;;
74614;SDS011;63121;51.458;-0.110;2023-07-20T04:15:23;2.45;;;1.10;;
74614;SDS011;63121;51.458;-0.110;2023-07-20T04:17:49;4.18;;;1.40;;
74614;SDS011;63121;51.458;-0.110;2023-07-20T04:20:14;5.25;;;1.30;;
74614;SDS011;63121;51.458;-0.110;2023-07-20T04:22:39;2.20;;;1.03;;
74614;SDS011;63121;51.458;-0.110;2023-07-20T04:25:05;3.55;;;1.20;;
74614;SDS011;63121;51.458;-0.110;2023-07-20T04:27:30;5.35;;;1.50;;
74614;SDS011;63121;51.458;-0.110;2023-07-20T04:29:57;3.78;;;1.30;;
74614;SDS011;63121;51.458;-0.110;2023-07-20T04:32:24;3.67;;;1.20;;
74614;SDS011;63121;51.458;-0.110;2023-07-20T04:34:50;4.18;;;1.30;;
74614;SDS011;63121;51.458;-0.110;2023-07-20T04:37:15;4.68;;;1.25;;
74614;SDS011;63121;51.458;-0.110;2023-07-20T04:39:41;3.00;;;1.23;;
74614;SDS011;63121;51.458;-0.110;2023-07-20T04:42:06;2.57;;;1.10;;
74614;SDS011;63121;51.458;-0.110;2023-07-20T04:44:32;3.75;;;1.27;;
74614;SDS011;63121;51.458;-0.110;2023-07-20T04:46:57;3.75;;;1.30;;
74614;SDS011;63121;51.458;-0.110;2023-07-20T04:49:22;3.73;;;1.30;;
74614;SDS011;63121;51.458;-0.110;2023-07-20T04:51:48;4.07;;;1.30;;
74614;SDS011;63121;51.458;-0.110;2023-07-20T04:54:13;3.73;;;1.27;;
74614;SDS011;63121;51.458;-0.110;2023-07-20T04:56:39;4.22;;;1.20;;
74614;SDS011;63121;51.458;-0.110;2023-07-20T04:59:04;6.07;;;1.60;;
74614;SDS011;63121;51.458;-0.110;2023-07-20T05:01:29;3.90;;;1.38;;
74614;SDS011;63121;51.458;-0.110;2023-07-20T05:03:55;4.47;;;1.40;;
74614;SDS011;63121;51.458;-0.110;2023-07-20T05:06:20;4.33;;;1.50;;
74614;SDS011;63121;51.458;-0.110;2023-07-20T05:08:45;3.70;;;1.23;;
74614;SDS011;63121;51.458;-0.110;2023-07-20T05:11:11;3.53;;;1.33;;
74614;SDS011;63121;51.458;-0.110;2023-07-20T05:13:37;4.97;;;1.45;;
74614;SDS011;63121;51.458;-0.110;2023-07-20T05:16:02;5.13;;;1.50;;
74614;SDS011;63121;51.458;-0.110;2023-07-20T05:18:28;2.97;;;1.30;;
74614;SDS011;63121;51.458;-0.110;2023-07-20T05:20:53;4.53;;;1.30;;
74614;SDS011;63121;51.458;-0.110;2023-07-20T05:23:20;3.85;;;1.35;;
74614;SDS011;63121;51.458;-0.110;2023-07-20T05:25:46;4.90;;;1.60;;
74614;SDS011;63121;51.458;-0.110;2023-07-20T05:28:12;4.93;;;1.58;;
74614;SDS011;63121;51.458;-0.110;2023-07-20T05:30:38;4.78;;;1.60;;
74614;SDS011;63121;51.458;-0.110;2023-07-20T05:33:05;4.90;;;1.35;;
74614;SDS011;63121;51.458;-0.110;2023-07-20T05:35:30;5.53;;;1.40;;
74614;SDS011;63121;51.458;-0.110;2023-07-20T05:37:56;5.15;;;1.40;;
74614;SDS011;63121;51.458;-0.110;2023-07-20T05:40:21;3.22;;;1.30;;
74614;SDS011;63121;51.458;-0.110;2023-07-20T05:42:47;4.15;;;1.60;;
74614;SDS011;63121;51.458;-0.110;2023-07-20T05:45:16;6.75;;;1.70;;
74614;SDS011;63121;51.458;-0.110;2023-07-20T05:47:42;5.13;;;1.42;;
74614;SDS011;63121;51.458;-0.110;2023-07-20T05:50:08;5.25;;;1.70;;
74614;SDS011;63121;51.458;-0.110;2023-07-20T05:52:34;5.82;;;1.65;;
74614;SDS011;63121;51.458;-0.110;2023-07-20T05:54:59;7.95;;;2.00;;
74614;SDS011;63121;51.458;-0.110;2023-07-20T05:57:24;4.88;;;1.48;;
74614;SDS011;63121;51.458;-0.110;2023-07-20T05:59:50;5.45;;;1.50;;
74614;SDS011;63121;51.458;-0.110;2023-07-20T06:02:15;5.47;;;1.60;;
74614;SDS011;63121;51.458;-0.110;2023-07-20T06:04:41;5.28;;;1.60;;
74614;SDS011;63121;51.458;-0.110;2023-07-20T06:07:07;5.22;;;1.65;;
74614;SDS011;63121;51.458;-0.110;2023-07-20T06:09:33;5.72;;;1.45;;
74614;SDS011;63121;51.458;-0.110;2023-07-20T06:11:58;5.45;;;1.88;;
74614;SDS011;63121;51.458;-0.110;2023-07-20T06:14:24;5.75;;;1.50;;
74614;SDS011;63121;51.458;-0.110;2023-07-20T06:16:49;4.70;;;1.40;;
74614;SDS011;63121;51.458;-0.110;2023-07-20T06:19:14;6.90;;;1.47;;
74614;SDS011;63121;51.458;-0.110;2023-07-20T06:21:40;4.70;;;1.40;;
74614;SDS011;63121;51.458;-0.110;2023-07-20T06:24:05;5.53;;;1.52;;
74614;SDS011;63121;51.458;-0.110;2023-07-20T06:26:31;5.75;;;1.52;;
74614;SDS011;63121;51.458;-0.110;2023-07-20T06:29:03;7.57;;;1.80;;
74614;SDS011;63121;51.458;-0.110;2023-07-20T06:31:28;5.85;;;1.77;;
74614;SDS011;63121;51.458;-0.110;2023-07-20T06:33:54;5.95;;;1.60;;
74614;SDS011;63121;51.458;-0.110;2023-07-20T06:36:19;5.10;;;1.63;;
74614;SDS011;63121;51.458;-0.110;2023-07-20T06:38:45;6.60;;;1.80;;
74614;SDS011;63121;51.458;-0.110;2023-07-20T06:41:10;5.45;;;1.60;;
74614;SDS011;63121;51.458;-0.110;2023-07-20T06:43:35;7.28;;;1.85;;
74614;SDS011;63121;51.458;-0.110;2023-07-20T06:46:01;7.20;;;1.70;;
74614;SDS011;63121;51.458;-0.110;2023-07-20T06:48:27;5.63;;;1.77;;
74614;SDS011;63121;51.458;-0.110;2023-07-20T06:50:52;5.03;;;1.70;;
74614;SDS011;63121;51.458;-0.110;2023-07-20T06:53:18;6.45;;;1.67;;
74614;SDS011;63121;51.458;-0.110;2023-07-20T06:55:44;6.22;;;1.85;;
74614;SDS011;63121;51.458;-0.110;2023-07-20T06:58:10;3.78;;;1.40;;
74614;SDS011;63121;51.458;-0.110;2023-07-20T07:03:01;8.00;;;1.80;;
74614;SDS011;63121;51.458;-0.110;2023-07-20T07:05:28;5.60;;;1.70;;
74614;SDS011;63121;51.458;-0.110;2023-07-20T07:07:53;5.90;;;1.90;;
74614;SDS011;63121;51.458;-0.110;2023-07-20T07:10:18;7.33;;;1.80;;
74614;SDS011;63121;51.458;-0.110;2023-07-20T07:12:44;5.50;;;1.60;;
74614;SDS011;63121;51.458;-0.110;2023-07-20T07:15:09;7.43;;;1.73;;
74614;SDS011;63121;51.458;-0.110;2023-07-20T07:17:35;5.35;;;1.67;;
74614;SDS011;63121;51.458;-0.110;2023-07-20T07:20:01;5.30;;;1.60;;
74614;SDS011;63121;51.458;-0.110;2023-07-20T07:22:27;5.45;;;1.60;;
74614;SDS011;63121;51.458;-0.110;2023-07-20T07:24:54;6.93;;;2.00;;
74614;SDS011;63121;51.458;-0.110;2023-07-20T07:27:20;4.82;;;1.70;;
74614;SDS011;63121;51.458;-0.110;2023-07-20T07:29:45;5.75;;;1.70;;
74614;SDS011;63121;51.458;-0.110;2023-07-20T07:32:11;6.97;;;1.63;;
74614;SDS011;63121;51.458;-0.110;2023-07-20T07:34:37;5.97;;;1.63;;
74614;SDS011;63121;51.458;-0.110;2023-07-20T07:37:03;5.13;;;1.70;;
74614;SDS011;63121;51.458;-0.110;2023-07-20T07:39:29;5.05;;;1.70;;
74614;SDS011;63121;51.458;-0.110;2023-07-20T07:41:55;6.18;;;1.70;;
74614;SDS011;63121;51.458;-0.110;2023-07-20T07:44:21;6.32;;;1.80;;
74614;SDS011;63121;51.458;-0.110;2023-07-20T07:46:46;7.00;;;1.58;;
74614;SDS011;63121;51.458;-0.110;2023-07-20T07:49:12;6.85;;;1.77;;
74614;SDS011;63121;51.458;-0.110;2023-07-20T07:51:37;4.43;;;1.80;;
74614;SDS011;63121;51.458;-0.110;2023-07-20T07:54:02;5.63;;;1.80;;
74614;SDS011;63121;51.458;-0.110;2023-07-20T07:56:28;7.80;;;1.75;;
74614;SDS011;63121;51.458;-0.110;2023-07-20T07:58:54;4.85;;;1.75;;
74614;SDS011;63121;51.458;-0.110;2023-07-20T08:01:19;6.30;;;1.63;;
74614;SDS011;63121;51.458;-0.110;2023-07-20T08:03:45;4.95;;;1.60;;
74614;SDS011;63121;51.458;-0.110;2023-07-20T08:06:12;8.25;;;2.25;;
74614;SDS011;63121;51.458;-0.110;2023-07-20T08:08:38;5.95;;;1.58;;
74614;SDS011;63121;51.458;-0.110;2023-07-20T08:11:04;5.00;;;1.60;;
74614;SDS011;63121;51.458;-0.110;2023-07-20T08:13:29;5.70;;;1.67;;
74614;SDS011;63121;51.458;-0.110;2023-07-20T08:15:55;4.60;;;1.67;;
74614;SDS011;63121;51.458;-0.110;2023-07-20T08:18:20;6.00;;;1.80;;
74614;SDS011;63121;51.458;-0.110;2023-07-20T08:20:46;5.03;;;1.60;;
74614;SDS011;63121;51.458;-0.110;2023-07-20T08:23:13;5.95;;;1.38;;
74614;SDS011;63121;51.458;-0.110;2023-07-20T08:25:39;3.78;;;1.30;;
74614;SDS011;63121;51.458;-0.110;2023-07-20T08:28:08;5.53;;;1.52;;
74614;SDS011;63121;51.458;-0.110;2023-07-20T08:30:40;4.68;;;1.50;;
74614;SDS011;63121;51.458;-0.110;2023-07-20T08:33:06;4.72;;;1.50;;
74614;SDS011;63121;51.458;-0.110;2023-07-20T08:35:32;5.57;;;1.38;;
74614;SDS011;63121;51.458;-0.110;2023-07-20T08:37:57;6.53;;;1.57;;
74614;SDS011;63121;51.458;-0.110;2023-07-20T08:40:22;4.77;;;1.40;;
74614;SDS011;63121;51.458;-0.110;2023-07-20T08:42:48;4.87;;;1.50;;
74614;SDS011;63121;51.458;-0.110;2023-07-20T08:45:14;5.03;;;1.30;;
74614;SDS011;63121;51.458;-0.110;2023-07-20T08:47:42;4.50;;;1.60;;
74614;SDS011;63121;51.458;-0.110;2023-07-20T08:50:10;4.43;;;1.55;;
74614;SDS011;63121;51.458;-0.110;2023-07-20T08:52:37;4.10;;;1.50;;
74614;SDS011;63121;51.458;-0.110;2023-07-20T08:55:03;4.47;;;1.33;;
74614;SDS011;63121;51.458;-0.110;2023-07-20T08:57:29;5.55;;;1.52;;
74614;SDS011;63121;51.458;-0.110;2023-07-20T08:59:57;7.45;;;1.60;;
74614;SDS011;63121;51.458;-0.110;2023-07-20T09:02:25;4.93;;;1.42;;
74614;SDS011;63121;51.458;-0.110;2023-07-20T09:04:52;5.45;;;1.20;;
74614;SDS011;63121;51.458;-0.110;2023-07-20T09:07:17;3.35;;;1.00;;
74614;SDS011;63121;51.458;-0.110;2023-07-20T09:09:45;3.72;;;1.17;;
74614;SDS011;63121;51.458;-0.110;2023-07-20T09:12:14;6.32;;;1.50;;
74614;SDS011;63121;51.458;-0.110;2023-07-20T09:14:42;6.75;;;1.40;;
74614;SDS011;63121;51.458;-0.110;2023-07-20T09:17:12;4.93;;;1.45;;
74614;SDS011;63121;51.458;-0.110;2023-07-20T09:19:38;8.52;;;2.40;;
74614;SDS011;63121;51.458;-0.110;2023-07-20T09:22:03;7.97;;;2.40;;
74614;SDS011;63121;51.458;-0.110;2023-07-20T09:24:30;4.90;;;1.30;;
74614;SDS011;63121;51.458;-0.110;2023-07-20T09:26:57;4.30;;;1.27;;
74614;SDS011;63121;51.458;-0.110;2023-07-20T09:29:29;3.28;;;1.10;;
74614;SDS011;63121;51.458;-0.110;2023-07-20T09:34:25;3.80;;;1.30;;
74614;SDS011;63121;51.458;-0.110;2023-07-20T09:36:51;5.45;;;1.50;;
74614;SDS011;63121;51.458;-0.110;2023-07-20T09:39:17;2.78;;;1.10;;
74614;SDS011;63121;51.458;-0.110;2023-07-20T09:41:42;4.93;;;1.30;;
74614;SDS011;63121;51.458;-0.110;2023-07-20T09:44:08;3.58;;;1.30;;
74614;SDS011;63121;51.458;-0.110;2023-07-20T09:46:48;8.52;;;2.15;;
74614;SDS011;63121;51.458;-0.110;2023-07-20T09:49:14;5.63;;;1.60;;
74614;SDS011;63121;51.458;-0.110;2023-07-20T09:51:40;3.47;;;1.20;;
74614;SDS011;63121;51.458;-0.110;2023-07-20T09:54:07;3.40;;;1.23;;
74614;SDS011;63121;51.458;-0.110;2023-07-20T09:56:33;9.07;;;1.25;;
74614;SDS011;63121;51.458;-0.110;2023-07-20T09:59:00;4.10;;;1.20;;
74614;SDS011;63121;51.458;-0.110;2023-07-20T10:01:25;4.03;;;1.38;;
74614;SDS011;63121;51.458;-0.110;2023-07-20T10:03:53;4.68;;;1.40;;
74614;SDS011;63121;51.458;-0.110;2023-07-20T10:06:23;3.33;;;1.10;;
74614;SDS011;63121;51.458;-0.110;2023-07-20T10:08:52;3.15;;;1.20;;
74614;SDS011;63121;51.458;-0.110;2023-07-20T10:11:21;2.65;;;1.10;;
74614;SDS011;63121;51.458;-0.110;2023-07-20T10:13:47;2.70;;;1.10;;
74614;SDS011;63121;51.458;-0.110;2023-07-20T10:16:28;5.03;;;1.20;;
74614;SDS011;63121;51.458;-0.110;2023-07-20T10:21:24;3.35;;;1.20;;
74614;SDS011;63121;51.458;-0.110;2023-07-20T10:23:50;2.60;;;1.20;;
74614;SDS011;63121;51.458;-0.110;2023-07-20T10:26:16;2.47;;;1.10;;
74614;SDS011;63121;51.458;-0.110;2023-07-20T10:28:41;4.22;;;1.08;;
74614;SDS011;63121;51.458;-0.110;2023-07-20T10:31:07;3.35;;;1.25;;
74614;SDS011;63121;51.458;-0.110;2023-07-20T10:33:35;3.63;;;1.20;;
74614;SDS011;63121;51.458;-0.110;2023-07-20T10:36:03;2.13;;;1.10;;
74614;SDS011;63121;51.458;-0.110;2023-07-20T10:39:13;3.92;;;1.20;;
74614;SDS011;63121;51.458;-0.110;2023-07-20T10:43:47;4.10;;;1.30;;
74614;SDS011;63121;51.458;-0.110;2023-07-20T10:46:13;3.35;;;1.05;;
74614;SDS011;63121;51.458;-0.110;2023-07-20T10:51:27;3.42;;;1.10;;
74614;SDS011;63121;51.458;-0.110;2023-07-20T10:53:54;3.92;;;1.20;;
74614;SDS011;63121;51.458;-0.110;2023-07-20T10:56:22;4.32;;;1.20;;
74614;SDS011;63121;51.458;-0.110;2023-07-20T11:01:14;5.40;;;1.20;;
74614;SDS011;63121;51.458;-0.110;2023-07-20T11:03:42;2.75;;;1.17;;
74614;SDS011;63121;51.458;-0.110;2023-07-20T11:08:48;2.35;;;0.90;;
74614;SDS011;63121;51.458;-0.110;2023-07-20T11:11:21;4.22;;;1.30;;
74614;SDS011;63121;51.458;-0.110;2023-07-20T11:13:54;2.75;;;1.02;;
74614;SDS011;63121;51.458;-0.110;2023-07-20T11:19:18;2.30;;;1.00;;
74614;SDS011;63121;51.458;-0.110;2023-07-20T11:21:54;2.42;;;1.10;;
74614;SDS011;63121;51.458;-0.110;2023-07-20T11:26:49;2.47;;;1.10;;
74614;SDS011;63121;51.458;-0.110;2023-07-20T11:29:16;3.95;;;1.20;;
74614;SDS011;63121;51.458;-0.110;2023-07-20T11:31:43;2.55;;;1.02;;
74614;SDS011;63121;51.458;-0.110;2023-07-20T11:34:19;3.25;;;1.17;;
74614;SDS011;63121;51.458;-0.110;2023-07-20T11:36:47;3.17;;;1.15;;
74614;SDS011;63121;51.458;-0.110;2023-07-20T11:39:14;2.83;;;1.20;;
74614;SDS011;63121;51.458;-0.110;2023-07-20T11:41:44;4.25;;;1.20;;
74614;SDS011;63121;51.458;-0.110;2023-07-20T11:46:38;2.63;;;1.13;;
74614;SDS011;63121;51.458;-0.110;2023-07-20T11:49:04;3.80;;;1.05;;
74614;SDS011;63121;51.458;-0.110;2023-07-20T11:51:30;5.43;;;1.10;;
74614;SDS011;63121;51.458;-0.110;2023-07-20T11:56:23;3.70;;;1.20;;
74614;SDS011;63121;51.458;-0.110;2023-07-20T11:58:50;3.83;;;1.13;;
74614;SDS011;63121;51.458;-0.110;2023-07-20T12:01:16;3.28;;;1.05;;
74614;SDS011;63121;51.458;-0.110;2023-07-20T12:03:42;3.35;;;1.15;;
74614;SDS011;63121;51.458;-0.110;2023-07-20T12:06:09;3.95;;;1.20;;
74614;SDS011;63121;51.458;-0.110;2023-07-20T12:08:37;3.70;;;1.10;;
74614;SDS011;63121;51.458;-0.110;2023-07-20T12:11:04;3.60;;;1.30;;
74614;SDS011;63121;51.458;-0.110;2023-07-20T12:13:36;4.35;;;1.27;;
74614;SDS011;63121;51.458;-0.110;2023-07-20T12:16:09;5.22;;;1.20;;
74614;SDS011;63121;51.458;-0.110;2023-07-20T12:18:39;4.43;;;1.17;;
74614;SDS011;63121;51.458;-0.110;2023-07-20T12:21:05;3.75;;;1.10;;
74614;SDS011;63121;51.458;-0.110;2023-07-20T12:23:36;3.90;;;1.10;;
74614;SDS011;63121;51.458;-0.110;2023-07-20T12:26:03;3.13;;;1.25;;
74614;SDS011;63121;51.458;-0.110;2023-07-20T12:28:30;4.60;;;1.13;;
74614;SDS011;63121;51.458;-0.110;2023-07-20T12:30:56;2.80;;;1.02;;
74614;SDS011;63121;51.458;-0.110;2023-07-20T12:33:22;4.10;;;1.25;;
74614;SDS011;63121;51.458;-0.110;2023-07-20T12:35:48;4.53;;;1.35;;
74614;SDS011;63121;51.458;-0.110;2023-07-20T12:38:14;4.75;;;1.20;;
74614;SDS011;63121;51.458;-0.110;2023-07-20T12:40:40;3.13;;;1.17;;
74614;SDS011;63121;51.458;-0.110;2023-07-20T12:43:06;4.53;;;1.30;;
74614;SDS011;63121;51.458;-0.110;2023-07-20T12:45:32;3.83;;;1.10;;
74614;SDS011;63121;51.458;-0.110;2023-07-20T12:47:58;5.25;;;1.35;;
74614;SDS011;63121;51.458;-0.110;2023-07-20T12:50:24;2.70;;;1.00;;
74614;SDS011;63121;51.458;-0.110;2023-07-20T12:52:50;2.80;;;1.13;;
74614;SDS011;63121;51.458;-0.110;2023-07-20T12:55:15;3.35;;;1.20;;
74614;SDS011;63121;51.458;-0.110;2023-07-20T12:57:41;5.53;;;1.30;;
74614;SDS011;63121;51.458;-0.110;2023-07-20T13:00:08;3.88;;;1.10;;
74614;SDS011;63121;51.458;-0.110;2023-07-20T13:02:35;3.85;;;1.10;;
74614;SDS011;63121;51.458;-0.110;2023-07-20T13:05:01;2.63;;;1.08;;
74614;SDS011;63121;51.458;-0.110;2023-07-20T13:07:31;2.60;;;1.10;;
74614;SDS011;63121;51.458;-0.110;2023-07-20T13:09:58;3.85;;;1.17;;
74614;SDS011;63121;51.458;-0.110;2023-07-20T13:12:25;5.53;;;1.20;;
74614;SDS011;63121;51.458;-0.110;2023-07-20T13:14:52;3.90;;;1.30;;
74614;SDS011;63121;51.458;-0.110;2023-07-20T13:17:17;3.70;;;1.00;;
74614;SDS011;63121;51.458;-0.110;2023-07-20T13:19:42;3.07;;;1.00;;
74614;SDS011;63121;51.458;-0.110;2023-07-20T13:22:07;3.63;;;1.20;;
74614;SDS011;63121;51.458;-0.110;2023-07-20T13:24:33;1.88;;;0.90;;
74614;SDS011;63121;51.458;-0.110;2023-07-20T13:26:58;3.00;;;1.10;;
74614;SDS011;63121;51.458;-0.110;2023-07-20T13:29:24;3.67;;;1.40;;
74614;SDS011;63121;51.458;-0.110;2023-07-20T13:31:50;4.07;;;1.10;;
74614;SDS011;63121;51.458;-0.110;2023-07-20T13:34:15;5.57;;;1.38;;
74614;SDS011;63121;51.458;-0.110;2023-07-20T13:36:41;3.43;;;1.20;;
74614;SDS011;63121;51.458;-0.110;2023-07-20T13:39:06;2.65;;;1.00;;
74614;SDS011;63121;51.458;-0.110;2023-07-20T13:43:58;3.47;;;1.20;;
74614;SDS011;63121;51.458;-0.110;2023-07-20T13:46:23;4.87;;;1.23;;
74614;SDS011;63121;51.458;-0.110;2023-07-20T13:48:48;3.33;;;1.20;;
74614;SDS011;63121;51.458;-0.110;2023-07-20T13:51:14;3.22;;;1.10;;
74614;SDS011;63121;51.458;-0.110;2023-07-20T13:53:39;2.15;;;1.02;;
74614;SDS011;63121;51.458;-0.110;2023-07-20T13:56:05;2.80;;;1.10;;
74614;SDS011;63121;51.458;-0.110;2023-07-20T13:58:31;3.22;;;1.25;;
74614;SDS011;63121;51.458;-0.110;2023-07-20T14:00:57;4.38;;;1.27;;
74614;SDS011;63121;51.458;-0.110;2023-07-20T14:03:22;2.80;;;1.23;;
74614;SDS011;63121;51.458;-0.110;2023-07-20T14:05:48;3.27;;;1.20;;
74614;SDS011;63121;51.458;-0.110;2023-07-20T14:08:14;4.85;;;1.50;;
74614;SDS011;63121;51.458;-0.110;2023-07-20T14:10:39;5.30;;;1.30;;
74614;SDS011;63121;51.458;-0.110;2023-07-20T14:13:04;3.00;;;1.13;;
74614;SDS011;63121;51.458;-0.110;2023-07-20T14:15:30;3.00;;;1.10;;
74614;SDS011;63121;51.458;-0.110;2023-07-20T14:17:56;6.40;;;1.15;;
74614;SDS011;63121;51.458;-0.110;2023-07-20T14:20:21;4.97;;;1.30;;
74614;SDS011;63121;51.458;-0.110;2023-07-20T14:22:46;2.33;;;0.90;;
74614;SDS011;63121;51.458;-0.110;2023-07-20T14:25:13;5.15;;;1.20;;
74614;SDS011;63121;51.458;-0.110;2023-07-20T14:27:38;2.38;;;1.10;;
74614;SDS011;63121;51.458;-0.110;2023-07-20T14:30:04;4.65;;;1.10;;
74614;SDS011;63121;51.458;-0.110;2023-07-20T14:32:30;2.88;;;1.10;;
74614;SDS011;63121;51.458;-0.110;2023-07-20T14:34:56;2.22;;;1.08;;
74614;SDS011;63121;51.458;-0.110;2023-07-20T14:37:21;3.37;;;1.20;;
74614;SDS011;63121;51.458;-0.110;2023-07-20T14:39:47;2.97;;;1.00;;
74614;SDS011;63121;51.458;-0.110;2023-07-20T14:42:13;2.70;;;1.10;;
74614;SDS011;63121;51.458;-0.110;2023-07-20T14:44:38;3.55;;;1.10;;
74614;SDS011;63121;51.458;-0.110;2023-07-20T14:47:04;4.33;;;1.20;;
74614;SDS011;63121;51.458;-0.110;2023-07-20T14:49:29;4.60;;;1.15;;
74614;SDS011;63121;51.458;-0.110;2023-07-20T14:51:55;5.17;;;1.40;;
74614;SDS011;63121;51.458;-0.110;2023-07-20T14:54:20;3.67;;;1.10;;
74614;SDS011;63121;51.458;-0.110;2023-07-20T14:56:49;2.95;;;1.15;;
74614;SDS011;63121;51.458;-0.110;2023-07-20T14:59:17;4.20;;;1.20;;
74614;SDS011;63121;51.458;-0.110;2023-07-20T15:04:10;4.85;;;1.17;;
74614;SDS011;63121;51.458;-0.110;2023-07-20T15:06:36;2.70;;;1.00;;
74614;SDS011;63121;51.458;-0.110;2023-07-20T15:09:02;2.42;;;1.10;;